Time;durP1;ratioP1;P1;durP2;ratioP2;P2;SDS_P1;SDS_P2;PMS_P1;PMS_P2;Temp;Humidity;BMP_temperature;BMP_pressure;BME280_temperature;BME280_humidity;BME280_pressure;Samples;Min_cycle;Max_cycle;Signal;HPM_P1;HPM_P2
2023/02/15 00:01:50;;;;;;;42.50;23.35;;;1.10;99.90;;;;;;5073355;28;20059;-77
2023/02/15 00:04:21;;;;;;;39.00;21.92;;;1.10;99.90;;;;;;5075537;28;20041;-77
2023/02/15 00:06:48;;;;;;;39.70;22.70;;;1.80;99.90;;;;;;5110484;28;20453;-77
2023/02/15 00:09:15;;;;;;;40.58;22.83;;;1.10;99.90;;;;;;5094671;28;20126;-78
2023/02/15 00:11:44;;;;;;;37.92;22.88;;;1.10;99.90;;;;;;5111904;28;20032;-77
2023/02/15 00:14:14;;;;;;;39.80;23.30;;;1.10;99.90;;;;;;5081636;28;20450;-77
2023/02/15 00:16:42;;;;;;;39.35;22.58;;;1.20;99.90;;;;;;5074966;28;20121;-78
2023/02/15 00:19:11;;;;;;;41.67;23.42;;;1.70;99.90;;;;;;5074658;28;20098;-77
2023/02/15 00:21:38;;;;;;;40.78;23.88;;;1.00;99.90;;;;;;5074435;28;20044;-77
2023/02/15 00:24:07;;;;;;;38.58;21.50;;;1.10;99.90;;;;;;5099114;28;20048;-77
2023/02/15 00:26:34;;;;;;;39.42;23.23;;;1.00;99.90;;;;;;5093875;28;20040;-77
2023/02/15 00:29:01;;;;;;;41.65;22.92;;;1.00;99.90;;;;;;5077908;28;20054;-77
2023/02/15 00:31:30;;;;;;;40.58;22.80;;;1.00;99.90;;;;;;5094705;28;20085;-77
2023/02/15 00:34:05;;;;;;;40.17;23.02;;;0.90;99.90;;;;;;5094247;28;20036;-77
2023/02/15 00:36:32;;;;;;;39.70;22.97;;;1.40;99.90;;;;;;5077908;28;20109;-77
2023/02/15 00:38:59;;;;;;;38.92;23.25;;;0.90;99.90;;;;;;5077704;28;20274;-77
2023/02/15 00:41:25;;;;;;;44.78;23.40;;;0.90;99.90;;;;;;5094447;28;20084;-77
2023/02/15 00:43:52;;;;;;;39.13;22.75;;;0.80;99.90;;;;;;5093269;28;20040;-77
2023/02/15 00:46:19;;;;;;;36.72;20.67;;;0.80;99.90;;;;;;5042252;28;20035;-77
2023/02/15 00:48:46;;;;;;;37.72;21.55;;;0.80;99.90;;;;;;5041095;28;20074;-77
2023/02/15 00:51:12;;;;;;;36.22;20.30;;;0.80;99.90;;;;;;5073472;28;20044;-77
2023/02/15 00:53:39;;;;;;;36.53;20.02;;;0.80;99.90;;;;;;5090612;28;20386;-77
2023/02/15 00:56:06;;;;;;;37.42;21.48;;;0.80;99.90;;;;;;5090442;28;20717;-77
2023/02/15 00:58:32;;;;;;;35.78;19.98;;;0.70;99.90;;;;;;5057217;28;20110;-77
2023/02/15 01:01:06;;;;;;;36.85;20.17;;;0.70;99.90;;;;;;5057235;28;20068;-77
2023/02/15 01:03:34;;;;;;;41.55;21.98;;;0.70;99.90;;;;;;5073381;28;20052;-77
2023/02/15 01:06:01;;;;;;;37.05;21.02;;;0.70;99.90;;;;;;5074645;28;20127;-77
2023/02/15 01:08:28;;;;;;;36.83;19.83;;;0.60;99.90;;;;;;5057192;28;20040;-77
2023/02/15 01:10:55;;;;;;;40.40;20.15;;;0.60;99.90;;;;;;5057518;28;20033;-77
2023/02/15 01:13:22;;;;;;;36.03;19.85;;;0.90;99.90;;;;;;5089858;28;20044;-77
2023/02/15 01:15:54;;;;;;;34.88;19.08;;;1.30;99.90;;;;;;5091052;28;20048;-77
2023/02/15 01:18:22;;;;;;;34.70;18.73;;;0.70;99.90;;;;;;5057047;28;20492;-77
2023/02/15 01:20:48;;;;;;;32.55;17.88;;;1.20;99.90;;;;;;5090268;28;20052;-77
2023/02/15 01:23:15;;;;;;;33.95;20.42;;;0.60;99.90;;;;;;5072976;28;20420;-77
2023/02/15 01:25:42;;;;;;;33.33;19.75;;;0.60;99.90;;;;;;5076056;28;20404;-78
2023/02/15 01:28:09;;;;;;;37.53;19.63;;;0.60;99.90;;;;;;5092832;28;20047;-78
2023/02/15 01:30:36;;;;;;;32.38;18.45;;;0.60;99.90;;;;;;5093465;28;20071;-78
2023/02/15 01:33:03;;;;;;;33.17;18.75;;;0.60;99.90;;;;;;5093580;28;20040;-77
2023/02/15 01:35:30;;;;;;;34.75;19.95;;;0.60;99.90;;;;;;5092687;28;20036;-78
2023/02/15 01:37:57;;;;;;;34.20;17.17;;;0.60;99.90;;;;;;5091645;28;20097;-78
2023/02/15 01:40:24;;;;;;;32.22;18.48;;;0.60;99.90;;;;;;5056573;28;20044;-77
2023/02/15 01:42:53;;;;;;;32.40;17.42;;;0.60;99.90;;;;;;5072848;28;20036;-78
2023/02/15 01:45:31;;;;;;;31.95;17.58;;;1.30;99.90;;;;;;5072677;28;20067;-78
2023/02/15 01:48:22;;;;;;;28.67;16.70;;;0.50;99.90;;;;;;5068608;28;20072;-77
2023/02/15 01:51:01;;;;;;;28.85;16.70;;;0.50;99.90;;;;;;5089746;28;20048;-77
2023/02/15 01:53:34;;;;;;;33.58;17.17;;;0.50;99.90;;;;;;5072726;28;20036;-78
2023/02/15 01:56:18;;;;;;;27.10;16.35;;;0.50;99.90;;;;;;5089581;28;20460;-78
2023/02/15 01:58:50;;;;;;;26.05;15.45;;;0.50;99.90;;;;;;5108120;28;20115;-78
2023/02/15 02:01:18;;;;;;;27.23;16.70;;;0.40;99.90;;;;;;5109100;28;20531;-77
2023/02/15 02:04:03;;;;;;;27.50;16.60;;;0.40;99.90;;;;;;5109820;28;20097;-77
2023/02/15 02:06:32;;;;;;;25.10;15.50;;;0.40;99.90;;;;;;5092603;28;20072;-77
2023/02/15 02:08:59;;;;;;;29.92;16.60;;;0.50;99.90;;;;;;5069994;28;20036;-78
2023/02/15 02:11:26;;;;;;;29.52;16.58;;;0.40;99.90;;;;;;5069364;28;20102;-78
2023/02/15 02:13:55;;;;;;;27.92;15.77;;;0.40;99.90;;;;;;5071996;28;20473;-78
2023/02/15 02:16:25;;;;;;;31.13;16.83;;;0.40;99.90;;;;;;5088509;28;20032;-78
2023/02/15 02:19:29;;;;;;;30.73;16.70;;;0.40;99.90;;;;;;5084625;28;20462;-77
2023/02/15 02:22:11;;;;;;;33.15;15.48;;;0.40;99.90;;;;;;5109025;28;20408;-78
2023/02/15 02:24:59;;;;;;;34.63;16.38;;;0.40;99.90;;;;;;5092217;28;20141;-78
2023/02/15 02:27:48;;;;;;;29.75;16.67;;;0.40;99.90;;;;;;5091728;28;20551;-78
2023/02/15 02:30:52;;;;;;;27.65;15.85;;;0.40;99.90;;;;;;5091689;28;20047;-78
2023/02/15 02:33:28;;;;;;;29.90;16.10;;;0.40;99.90;;;;;;5108344;28;20046;-78
2023/02/15 02:36:01;;;;;;;28.35;16.73;;;0.40;99.90;;;;;;5092200;28;20036;-78
2023/02/15 02:38:39;;;;;;;31.73;16.77;;;0.40;99.90;;;;;;5089413;28;20443;-77
2023/02/15 02:41:09;;;;;;;27.73;16.15;;;0.40;99.90;;;;;;5072290;28;20055;-77
2023/02/15 02:43:54;;;;;;;29.33;16.85;;;0.40;99.90;;;;;;5088016;28;20123;-77
2023/02/15 02:46:36;;;;;;;28.50;16.80;;;0.30;99.90;;;;;;5087954;28;20048;-77
2023/02/15 02:49:04;;;;;;;29.20;16.45;;;0.30;99.90;;;;;;5073245;28;20033;-77
2023/02/15 02:51:30;;;;;;;31.42;16.80;;;0.30;99.90;;;;;;5063655;28;20036;-77
2023/02/15 02:54:00;;;;;;;31.05;17.77;;;0.30;99.90;;;;;;5085378;28;20058;-77
2023/02/15 02:56:37;;;;;;;30.02;16.40;;;0.30;99.90;;;;;;5128492;28;20084;-78
2023/02/15 02:59:04;;;;;;;27.80;17.40;;;0.60;99.90;;;;;;5125297;28;20047;-77
2023/02/15 03:01:43;;;;;;;29.83;15.65;;;0.20;99.90;;;;;;5087800;28;20400;-78
2023/02/15 03:04:28;;;;;;;30.95;16.70;;;0.20;99.90;;;;;;5071728;28;20048;-77
2023/02/15 03:07:05;;;;;;;28.35;16.13;;;0.10;99.90;;;;;;5071885;28;20501;-77
2023/02/15 03:09:42;;;;;;;28.60;16.17;;;0.10;99.90;;;;;;5089238;28;20080;-77
2023/02/15 03:12:14;;;;;;;31.85;18.00;;;0.10;99.90;;;;;;5108511;28;20555;-77
2023/02/15 03:14:43;;;;;;;31.65;16.38;;;0.10;99.90;;;;;;5091238;28;20032;-77
2023/02/15 03:17:13;;;;;;;28.00;16.20;;;0.10;99.90;;;;;;5108314;28;20105;-77
2023/02/15 03:19:42;;;;;;;28.23;16.50;;;0.90;99.90;;;;;;5107009;28;20079;-77
2023/02/15 03:22:20;;;;;;;29.10;16.55;;;0.10;99.90;;;;;;5088584;28;20140;-77
2023/02/15 03:25:04;;;;;;;27.83;15.60;;;0.00;99.90;;;;;;5076650;28;20492;-77
2023/02/15 03:27:36;;;;;;;27.23;15.70;;;0.00;99.90;;;;;;5074518;28;20059;-78
2023/02/15 03:30:06;;;;;;;28.60;16.20;;;0.70;99.90;;;;;;5075621;28;20051;-77
2023/02/15 03:32:37;;;;;;;26.17;14.95;;;0.00;99.90;;;;;;5059074;28;20028;-77
2023/02/15 03:35:04;;;;;;;27.05;15.50;;;-0.10;99.90;;;;;;5092073;28;20089;-77
2023/02/15 03:37:54;;;;;;;27.17;15.75;;;-0.10;99.90;;;;;;5075463;28;20093;-77
2023/02/15 03:43:24;;;;;;;30.65;16.38;;;0.00;99.90;;;;;;5091936;28;20090;-77
2023/02/15 03:45:56;;;;;;;;;;;0.00;99.90;;;;;;5075929;28;20131;-77
2023/02/15 03:48:31;;;;;;;26.35;16.02;;;0.00;99.90;;;;;;5091459;28;19943;-77
2023/02/15 03:53:52;;;;;;;25.55;15.45;;;0.00;99.90;;;;;;5102317;28;20051;-77
2023/02/15 03:56:18;;;;;;;28.55;16.52;;;0.10;99.90;;;;;;5088388;28;20036;-77
2023/02/15 04:01:57;;;;;;;28.00;16.95;;;0.00;99.90;;;;;;5110854;28;20097;-77
2023/02/15 04:04:46;;;;;;;28.38;15.95;;;0.10;99.90;;;;;;5094630;28;20048;-77
2023/02/15 04:07:13;;;;;;;31.02;17.20;;;0.10;99.90;;;;;;5094606;28;20036;-77
2023/02/15 04:12:25;;;;;;;33.53;17.50;;;0.00;99.90;;;;;;5077111;28;20057;-77
2023/02/15 04:17:37;;;;;;;30.50;17.80;;;0.00;99.90;;;;;;5092015;28;20117;-77
2023/02/15 04:25:35;;;;;;;36.30;17.90;;;-0.10;99.90;;;;;;5076717;28;20080;-77
2023/02/15 04:28:01;;;;;;;34.08;18.38;;;-0.10;99.90;;;;;;5077345;28;20072;-77
2023/02/15 04:30:28;;;;;;;35.45;18.08;;;-0.10;99.90;;;;;;5077607;28;20126;-77
2023/02/15 04:32:56;;;;;;;36.95;19.00;;;-0.10;99.90;;;;;;5094014;28;20598;-77
2023/02/15 04:35:23;;;;;;;36.88;18.92;;;-0.10;99.90;;;;;;5094959;28;20086;-77
2023/02/15 04:37:50;;;;;;;40.47;19.05;;;-0.10;99.90;;;;;;5087048;28;20040;-77
2023/02/15 04:40:17;;;;;;;35.65;18.67;;;-0.10;99.90;;;;;;5074202;28;20048;-77
2023/02/15 04:42:46;;;;;;;41.47;19.10;;;-0.10;99.90;;;;;;5056818;28;20032;-77
2023/02/15 04:45:13;;;;;;;37.42;17.77;;;-0.10;99.90;;;;;;5090864;28;20043;-77
2023/02/15 04:47:40;;;;;;;42.47;18.38;;;-0.10;99.90;;;;;;5058225;28;20123;-77
2023/02/15 04:50:07;;;;;;;43.90;18.95;;;0.40;99.90;;;;;;5074045;28;20037;-77
2023/02/15 04:52:34;;;;;;;36.97;19.00;;;-0.10;99.90;;;;;;5073309;28;20759;-77
2023/02/15 04:55:01;;;;;;;44.08;19.50;;;-0.10;99.90;;;;;;5057134;28;20121;-77
2023/02/15 04:57:28;;;;;;;37.60;18.85;;;-0.10;99.90;;;;;;5073988;28;20495;-77
2023/02/15 04:59:54;;;;;;;32.97;18.20;;;0.10;99.90;;;;;;5071470;28;20051;-77
2023/02/15 05:02:21;;;;;;;46.05;19.02;;;-0.20;99.90;;;;;;5110420;28;20452;-77
2023/02/15 05:04:48;;;;;;;34.58;18.15;;;-0.20;99.90;;;;;;5093223;28;20512;-77
2023/02/15 05:07:14;;;;;;;39.08;18.02;;;-0.20;99.90;;;;;;5110327;28;20058;-77
2023/02/15 05:09:41;;;;;;;37.65;18.90;;;0.00;99.90;;;;;;5093746;28;20044;-77
2023/02/15 05:12:08;;;;;;;40.60;19.90;;;-0.20;99.90;;;;;;5110271;28;20040;-77
2023/02/15 05:14:34;;;;;;;38.08;19.20;;;-0.20;99.90;;;;;;5093769;28;20043;-77
2023/02/15 05:17:03;;;;;;;38.40;19.00;;;-0.20;99.90;;;;;;5076763;28;20051;-77
2023/02/15 05:19:29;;;;;;;35.97;17.73;;;-0.20;99.90;;;;;;5091725;28;20051;-77
2023/02/15 05:21:56;;;;;;;37.70;18.98;;;-0.20;99.90;;;;;;5093080;28;20496;-77
2023/02/15 05:29:56;;;;;;;35.97;18.95;;;-0.20;99.90;;;;;;5109509;28;20071;-77
2023/02/15 05:32:22;;;;;;;36.08;19.02;;;-0.20;99.90;;;;;;5093452;28;20080;-77
2023/02/15 05:34:49;;;;;;;38.08;18.25;;;-0.20;99.90;;;;;;5092925;28;20039;-77
2023/02/15 05:37:16;;;;;;;37.60;19.75;;;-0.30;99.90;;;;;;5076670;28;20051;-77
2023/02/15 05:39:42;;;;;;;36.00;18.90;;;-0.20;99.90;;;;;;5106128;28;20068;-77
2023/02/15 05:42:09;;;;;;;36.22;19.65;;;-0.30;99.90;;;;;;5072718;28;20076;-77
2023/02/15 05:44:36;;;;;;;35.22;19.10;;;-0.20;99.90;;;;;;5056607;28;20071;-76
2023/02/15 05:47:04;;;;;;;35.25;19.83;;;-0.20;99.90;;;;;;5039466;28;20133;-77
2023/02/15 05:49:31;;;;;;;37.75;19.75;;;-0.10;99.90;;;;;;5055866;28;20097;-77
2023/02/15 05:51:57;;;;;;;40.30;19.73;;;-0.20;99.90;;;;;;5090602;28;20544;-77
2023/02/15 05:54:24;;;;;;;38.63;20.30;;;-0.20;99.90;;;;;;5109427;28;20036;-77
2023/02/15 05:56:51;;;;;;;27.40;13.80;;;-0.20;99.90;;;;;;5109235;28;20054;-77
2023/02/15 05:59:17;;;;;;;34.33;16.08;;;-0.20;99.90;;;;;;5109691;28;20136;-77
2023/02/15 06:01:44;;;;;;;33.75;14.68;;;-0.20;99.90;;;;;;5078602;28;20059;-77
2023/02/15 06:04:11;;;;;;;32.47;14.27;;;-0.20;99.90;;;;;;5088786;28;20040;-77
2023/02/15 06:06:37;;;;;;;36.22;17.83;;;-0.20;99.90;;;;;;5076031;28;20094;-78
2023/02/15 06:09:04;;;;;;;34.28;16.23;;;-0.20;99.90;;;;;;5092247;28;20123;-77
2023/02/15 06:11:31;;;;;;;35.08;15.75;;;-0.20;99.90;;;;;;5084277;28;20040;-77
2023/02/15 06:13:57;;;;;;;34.67;16.15;;;-0.20;99.90;;;;;;5038987;28;20032;-78
2023/02/15 06:16:24;;;;;;;35.08;16.33;;;-0.20;99.90;;;;;;5088792;28;20485;-77
2023/02/15 06:18:51;;;;;;;35.33;17.02;;;0.10;99.90;;;;;;5055858;28;20129;-77
2023/02/15 06:21:17;;;;;;;33.63;16.05;;;-0.20;99.90;;;;;;5057644;28;20043;-77
2023/02/15 06:23:44;;;;;;;31.77;15.90;;;-0.20;99.90;;;;;;5039699;28;20038;-77
2023/02/15 06:26:11;;;;;;;36.80;16.52;;;-0.20;99.90;;;;;;5088470;28;20074;-77
2023/02/15 06:28:37;;;;;;;36.22;16.77;;;0.60;99.90;;;;;;5088573;28;20090;-77
2023/02/15 06:31:05;;;;;;;32.67;15.68;;;-0.20;99.90;;;;;;5071263;28;20037;-77
2023/02/15 06:33:33;;;;;;;33.50;16.30;;;0.30;99.90;;;;;;5086834;28;20122;-78
2023/02/15 06:36:00;;;;;;;32.78;17.05;;;0.30;99.90;;;;;;5055037;28;20033;-77
2023/02/15 06:38:27;;;;;;;32.65;16.30;;;-0.20;99.90;;;;;;5071756;28;20036;-78
2023/02/15 06:40:54;;;;;;;36.15;17.35;;;0.40;99.90;;;;;;5055219;28;20048;-77
2023/02/15 06:43:20;;;;;;;29.88;15.75;;;-0.20;99.90;;;;;;5088308;28;20146;-77
2023/02/15 06:45:47;;;;;;;32.42;16.45;;;-0.20;99.90;;;;;;5071756;28;20131;-77
2023/02/15 06:48:14;;;;;;;34.72;16.88;;;-0.10;99.90;;;;;;5071016;28;20041;-77
2023/02/15 06:50:41;;;;;;;43.75;17.75;;;0.50;99.90;;;;;;5071885;28;20599;-78
2023/02/15 06:53:07;;;;;;;37.78;17.63;;;-0.20;99.90;;;;;;5072288;28;20032;-77
2023/02/15 06:55:34;;;;;;;30.52;14.05;;;-0.10;99.90;;;;;;5055251;28;20036;-77
2023/02/15 06:58:01;;;;;;;31.70;15.05;;;-0.20;99.90;;;;;;5055154;28;20048;-77
2023/02/15 07:00:28;;;;;;;25.15;10.88;;;0.40;99.90;;;;;;5071132;28;20060;-77
2023/02/15 07:02:58;;;;;;;23.80;11.50;;;-0.10;99.90;;;;;;5038936;28;20044;-78
2023/02/15 07:05:30;;;;;;;22.83;11.52;;;0.50;99.90;;;;;;5077045;28;20137;-77
2023/02/15 07:07:58;;;;;;;22.48;11.43;;;-0.10;99.90;;;;;;5087918;28;20534;-77
2023/02/15 07:10:25;;;;;;;25.40;11.15;;;0.00;99.90;;;;;;5071688;28;20378;-77
2023/02/15 07:12:52;;;;;;;25.05;11.55;;;0.00;99.90;;;;;;5072734;28;20051;-77
2023/02/15 07:15:20;;;;;;;24.75;11.70;;;0.00;99.90;;;;;;5071285;28;20147;-77
2023/02/15 07:17:48;;;;;;;26.33;12.27;;;0.70;99.90;;;;;;5088096;28;20040;-77
2023/02/15 07:20:20;;;;;;;24.92;11.20;;;0.50;99.90;;;;;;5054735;28;20642;-77
2023/02/15 07:22:48;;;;;;;28.58;11.10;;;0.10;99.90;;;;;;5079457;28;20051;-77
2023/02/15 07:25:14;;;;;;;26.88;11.50;;;0.50;99.90;;;;;;5074324;28;20043;-77
2023/02/15 07:27:43;;;;;;;26.95;11.95;;;0.10;99.90;;;;;;5085430;28;20500;-77
2023/02/15 07:30:11;;;;;;;25.85;12.15;;;0.20;99.90;;;;;;5085427;28;20122;-77
2023/02/15 07:33:22;;;;;;;29.75;11.95;;;0.20;99.90;;;;;;5074629;28;20043;-78
2023/02/15 07:35:25;;;;;;;24.67;11.35;;;0.60;99.90;;;;;;5080756;28;20036;-78
2023/02/15 07:37:52;;;;;;;23.17;11.10;;;0.30;99.90;;;;;;5079052;28;20558;-77
2023/02/15 07:40:23;;;;;;;22.30;11.52;;;0.30;99.90;;;;;;5066478;28;20099;-78
2023/02/15 07:42:52;;;;;;;34.58;14.20;;;0.40;99.90;;;;;;5093569;28;20124;-77
2023/02/15 07:45:19;;;;;;;26.08;13.45;;;0.40;99.90;;;;;;5066150;28;20416;-78
2023/02/15 07:47:46;;;;;;;25.98;11.02;;;0.90;99.90;;;;;;5080765;28;20050;-78
2023/02/15 07:50:13;;;;;;;30.73;11.65;;;0.50;99.90;;;;;;5067832;28;20067;-78
2023/02/15 07:52:39;;;;;;;24.42;11.32;;;0.50;99.90;;;;;;5077327;28;20040;-78
2023/02/15 07:55:08;;;;;;;26.17;11.00;;;0.60;99.90;;;;;;5081070;28;20036;-78
2023/02/15 07:57:35;;;;;;;23.52;11.30;;;0.60;99.90;;;;;;5076357;28;20186;-78
2023/02/15 08:00:02;;;;;;;26.83;11.00;;;0.70;99.90;;;;;;5097267;28;20131;-78
2023/02/15 08:02:30;;;;;;;26.10;11.88;;;0.70;99.90;;;;;;5068941;28;20560;-78
2023/02/15 08:04:56;;;;;;;28.00;13.93;;;1.00;99.90;;;;;;5064817;28;20150;-78
2023/02/15 08:07:23;;;;;;;28.02;12.93;;;0.90;99.90;;;;;;5054630;28;20116;-78
2023/02/15 08:09:50;;;;;;;30.65;13.57;;;1.00;99.90;;;;;;5054354;28;20033;-78
2023/02/15 08:12:16;;;;;;;31.95;14.02;;;1.40;99.90;;;;;;5039571;28;20041;-78
2023/02/15 08:14:43;;;;;;;30.42;13.55;;;1.20;99.90;;;;;;5094630;28;20047;-78
2023/02/15 08:17:10;;;;;;;37.45;15.43;;;1.40;99.90;;;;;;5060958;28;20032;-78
2023/02/15 08:19:37;;;;;;;38.30;15.85;;;2.00;99.90;;;;;;5049933;28;20044;-78
2023/02/15 08:22:06;;;;;;;32.30;14.98;;;1.40;99.90;;;;;;5074552;28;20040;-78
2023/02/15 08:24:36;;;;;;;31.25;14.95;;;1.30;99.90;;;;;;5085152;28;20044;-78
2023/02/15 08:27:04;;;;;;;38.85;15.18;;;1.40;99.90;;;;;;5095475;28;20488;-78
2023/02/15 08:29:32;;;;;;;34.35;15.65;;;1.40;99.90;;;;;;5080151;28;20039;-78
2023/02/15 08:32:03;;;;;;;36.70;16.02;;;1.50;99.90;;;;;;5065596;28;20032;-78
2023/02/15 08:34:31;;;;;;;34.85;16.20;;;1.60;99.90;;;;;;5077674;28;20039;-78
2023/02/15 08:36:58;;;;;;;34.67;14.93;;;1.60;99.90;;;;;;5083484;28;20388;-78
2023/02/15 08:39:25;;;;;;;34.22;14.95;;;1.90;99.90;;;;;;5084280;28;20044;-78
2023/02/15 08:41:52;;;;;;;42.42;16.60;;;2.10;99.90;;;;;;5081894;28;20180;-77
2023/02/15 08:44:19;;;;;;;35.53;16.70;;;1.80;99.90;;;;;;5083763;28;20044;-78
2023/02/15 08:46:48;;;;;;;32.00;15.15;;;2.40;99.90;;;;;;5084618;28;20059;-78
2023/02/15 08:49:18;;;;;;;33.63;15.80;;;2.50;99.90;;;;;;5085112;28;20032;-78
2023/02/15 08:51:45;;;;;;;33.85;15.25;;;2.20;99.90;;;;;;5102001;28;20028;-78
2023/02/15 08:54:14;;;;;;;36.97;15.80;;;2.10;99.90;;;;;;5109648;28;20082;-78
2023/02/15 08:56:43;;;;;;;40.17;16.80;;;2.40;99.90;;;;;;5091045;28;20068;-78
2023/02/15 08:59:21;;;;;;;41.97;17.08;;;2.30;99.90;;;;;;5074270;28;20043;-78
2023/02/15 09:01:50;;;;;;;36.20;16.73;;;2.30;99.90;;;;;;5090317;28;20048;-78
2023/02/15 09:04:17;;;;;;;39.40;17.15;;;2.50;99.90;;;;;;5090531;28;20123;-78
2023/02/15 09:06:46;;;;;;;37.00;15.35;;;2.60;99.90;;;;;;5057177;28;20036;-78
2023/02/15 09:09:12;;;;;;;35.08;15.45;;;2.60;99.90;;;;;;5075176;28;20115;-78
2023/02/15 09:11:42;;;;;;;40.63;16.90;;;3.10;99.90;;;;;;5079286;28;20527;-78
2023/02/15 09:14:13;;;;;;;39.42;18.08;;;2.70;99.90;;;;;;5090402;28;20106;-78
2023/02/15 09:16:42;;;;;;;35.45;16.52;;;2.90;99.90;;;;;;5090179;28;20040;-79
2023/02/15 09:19:09;;;;;;;43.00;17.02;;;2.90;99.90;;;;;;5057474;28;20044;-78
2023/02/15 09:21:37;;;;;;;33.30;17.15;;;3.80;99.90;;;;;;5056994;28;20100;-78
2023/02/15 09:24:06;;;;;;;36.80;17.50;;;3.10;99.90;;;;;;5089821;28;20076;-78
2023/02/15 09:26:37;;;;;;;45.95;18.30;;;3.10;99.90;;;;;;5076898;28;20036;-79
2023/02/15 09:29:04;;;;;;;37.67;16.38;;;3.30;99.90;;;;;;5101797;28;20404;-78
2023/02/15 09:31:33;;;;;;;40.97;16.98;;;3.30;99.90;;;;;;5091776;28;20055;-78
2023/02/15 09:34:01;;;;;;;31.92;16.52;;;3.90;99.90;;;;;;5091430;28;20153;-79
2023/02/15 09:36:37;;;;;;;36.17;15.98;;;3.60;99.90;;;;;;5103189;28;20040;-79
2023/02/15 09:39:15;;;;;;;39.75;15.75;;;3.60;99.90;;;;;;5109845;28;20075;-79
2023/02/15 09:42:19;;;;;;;41.85;16.00;;;3.60;99.90;;;;;;5093312;28;20609;-79
2023/02/15 09:44:46;;;;;;;39.08;17.58;;;3.70;99.90;;;;;;5091563;28;20052;-79
2023/02/15 09:47:46;;;;;;;35.13;15.68;;;3.80;99.90;;;;;;5088230;28;20048;-79
2023/02/15 09:50:38;;;;;;;43.35;16.48;;;3.80;99.90;;;;;;5093116;28;20032;-79
2023/02/15 09:53:22;;;;;;;38.67;17.08;;;3.90;99.90;;;;;;5084031;28;20036;-78
2023/02/15 09:56:17;;;;;;;44.75;17.50;;;3.90;99.90;;;;;;5081638;28;20044;-78
2023/02/15 09:59:13;;;;;;;38.00;16.58;;;4.00;99.90;;;;;;5101756;28;20035;-80
2023/02/15 10:02:05;;;;;;;34.55;17.45;;;4.20;99.90;;;;;;5103230;28;20058;-79
2023/02/15 10:05:00;;;;;;;39.15;16.50;;;4.20;99.90;;;;;;5106123;28;20086;-79
2023/02/15 10:07:58;;;;;;;38.30;16.45;;;4.40;99.90;;;;;;5089200;28;20052;-80
2023/02/15 10:10:42;;;;;;;39.97;16.70;;;4.50;99.90;;;;;;5072274;28;20040;-79
2023/02/15 10:13:35;;;;;;;39.22;17.35;;;4.60;99.90;;;;;;5097654;28;20036;-78
2023/02/15 10:16:25;;;;;;;39.17;16.58;;;4.70;99.90;;;;;;5092200;28;20143;-79
2023/02/15 10:19:36;;;;;;;38.00;15.63;;;4.80;99.90;;;;;;5091909;28;20071;-78
2023/02/15 10:22:28;;;;;;;32.83;16.08;;;4.90;99.90;;;;;;5019282;28;20053;-79
2023/02/15 10:25:43;;;;;;;36.13;16.10;;;5.00;99.90;;;;;;5065045;28;20049;-79
2023/02/15 10:28:18;;;;;;;37.85;16.20;;;5.10;99.90;;;;;;5086329;28;20121;-80
2023/02/15 10:30:56;;;;;;;41.22;18.98;;;5.20;99.90;;;;;;5086373;28;20032;-79
2023/02/15 10:33:37;;;;;;;40.50;19.25;;;5.30;99.90;;;;;;5075374;28;20488;-79
2023/02/15 10:36:22;;;;;;;41.67;20.08;;;5.40;99.90;;;;;;5107910;28;20372;-79
2023/02/15 10:39:11;;;;;;;40.90;18.90;;;5.50;99.90;;;;;;5116162;28;20036;-79
2023/02/15 10:41:52;;;;;;;40.58;20.33;;;5.50;99.90;;;;;;5098801;28;20533;-79
2023/02/15 10:44:38;;;;;;;35.85;18.80;;;5.60;99.90;;;;;;5101324;28;20046;-79
2023/02/15 10:47:40;;;;;;;42.03;19.38;;;5.70;99.90;;;;;;5091561;28;20131;-79
2023/02/15 10:50:29;;;;;;;39.47;19.05;;;5.70;99.90;;;;;;5108324;28;20040;-78
2023/02/15 10:53:24;;;;;;;40.15;19.08;;;5.80;99.90;;;;;;5071344;28;20374;-79
2023/02/15 10:56:19;;;;;;;41.05;19.65;;;5.90;99.90;;;;;;5081738;28;20048;-79
2023/02/15 10:59:19;;;;;;;38.58;19.67;;;6.00;99.90;;;;;;5093910;28;20052;-79
2023/02/15 11:02:12;;;;;;;40.85;18.80;;;6.10;99.90;;;;;;5096189;28;20056;-79
2023/02/15 11:04:48;;;;;;;39.08;19.25;;;6.10;99.90;;;;;;5083129;28;20051;-79
2023/02/15 11:07:32;;;;;;;36.70;19.55;;;6.20;99.90;;;;;;5107975;28;20133;-79
2023/02/15 11:10:38;;;;;;;47.88;21.10;;;6.30;99.90;;;;;;5108326;28;20128;-79
2023/02/15 11:13:13;;;;;;;40.55;21.63;;;6.40;99.90;;;;;;5007636;28;20078;-79
2023/02/15 11:15:42;;;;;;;41.60;20.15;;;6.50;99.90;;;;;;5078715;28;20114;-79
2023/02/15 11:18:30;;;;;;;41.03;18.63;;;6.60;99.90;;;;;;5088263;28;20126;-79
2023/02/15 11:21:19;;;;;;;44.30;19.38;;;6.60;99.90;;;;;;5107041;28;20047;-78
2023/02/15 11:23:47;;;;;;;43.40;21.23;;;6.70;99.90;;;;;;5079541;28;20036;-79
2023/02/15 11:26:40;;;;;;;44.25;18.77;;;6.70;99.90;;;;;;5081591;28;20088;-79
2023/02/15 11:29:27;;;;;;;39.38;18.67;;;6.80;99.90;;;;;;5080477;28;20131;-79
2023/02/15 11:32:37;;;;;;;38.67;19.38;;;6.90;99.90;;;;;;5086276;28;20495;-79
2023/02/15 11:35:10;;;;;;;42.33;19.33;;;6.90;99.90;;;;;;5069276;28;20404;-79
2023/02/15 11:37:58;;;;;;;38.70;18.90;;;7.00;99.90;;;;;;5076743;28;20097;-79
2023/02/15 11:40:44;;;;;;;39.10;19.58;;;7.00;99.90;;;;;;5082404;28;20055;-79
2023/02/15 11:43:19;;;;;;;40.90;19.27;;;7.10;99.90;;;;;;5088871;28;20424;-79
2023/02/15 11:45:48;;;;;;;38.30;18.50;;;7.10;99.90;;;;;;5086994;28;20043;-79
2023/02/15 11:48:17;;;;;;;38.55;18.85;;;7.20;99.90;;;;;;5081446;28;20392;-79
2023/02/15 11:50:48;;;;;;;43.47;19.50;;;7.30;99.90;;;;;;5084823;28;20074;-79
2023/02/15 11:53:25;;;;;;;48.35;18.48;;;7.30;99.90;;;;;;5067222;28;20068;-79
2023/02/15 11:55:53;;;;;;;43.92;19.17;;;7.40;99.90;;;;;;5109344;28;20036;-79
2023/02/15 11:58:33;;;;;;;40.90;19.35;;;7.40;99.90;;;;;;5086629;28;20079;-79
2023/02/15 12:01:32;;;;;;;44.28;21.05;;;7.50;99.90;;;;;;5100078;28;20503;-79
2023/02/15 12:04:36;;;;;;;38.88;19.38;;;7.60;99.90;;;;;;5077734;28;20416;-78
2023/02/15 12:07:26;;;;;;;38.30;18.17;;;7.70;99.90;;;;;;5086974;28;20398;-79
2023/02/15 12:10:11;;;;;;;38.20;18.40;;;7.70;99.90;;;;;;5083566;28;20036;-79
2023/02/15 12:12:38;;;;;;;62.33;23.85;;;7.80;99.90;;;;;;5099963;28;20040;-79
2023/02/15 12:15:07;;;;;;;41.05;19.70;;;7.90;99.90;;;;;;5077882;28;20508;-79
2023/02/15 12:17:47;;;;;;;50.60;21.35;;;7.90;99.90;;;;;;5111064;28;20044;-78
2023/02/15 12:20:14;;;;;;;60.17;25.55;;;8.00;99.90;;;;;;5075980;28;20500;-79
2023/02/15 12:23:02;;;;;;;43.33;20.85;;;8.00;99.90;;;;;;5073761;28;20097;-79
2023/02/15 12:25:37;;;;;;;51.05;23.98;;;8.10;99.90;;;;;;5074479;28;20744;-79
2023/02/15 12:28:16;;;;;;;;;;;8.20;99.90;;;;;;5083565;28;20378;-79
2023/02/15 12:30:43;;;;;;;40.92;19.67;;;8.20;99.90;;;;;;5105953;28;19951;-78
2023/02/15 12:33:27;;;;;;;50.25;22.55;;;8.30;99.90;;;;;;5093192;28;20535;-79
2023/02/15 12:36:23;;;;;;;41.75;18.52;;;8.40;99.90;;;;;;5073822;28;20047;-79
2023/02/15 12:39:11;;;;;;;41.63;20.48;;;8.40;99.90;;;;;;5073532;28;20048;-79
2023/02/15 12:41:45;;;;;;;45.42;19.38;;;8.50;99.90;;;;;;5073438;28;20091;-79
2023/02/15 12:44:18;;;;;;;44.83;20.42;;;8.40;99.90;;;;;;5090183;28;20044;-79
2023/02/15 12:46:59;;;;;;;36.45;18.38;;;8.60;99.90;;;;;;5073578;28;20436;-79
2023/02/15 12:49:30;;;;;;;37.05;17.65;;;8.50;99.90;;;;;;5090197;28;20040;-79
2023/02/15 12:52:00;;;;;;;41.70;18.23;;;8.50;99.90;;;;;;5073320;28;20050;-79
2023/02/15 12:54:51;;;;;;;37.65;17.55;;;8.60;99.90;;;;;;5090194;28;20040;-79
2023/02/15 12:57:27;;;;;;;43.63;18.58;;;8.60;99.90;;;;;;5056939;28;20051;-79
2023/02/15 13:00:03;;;;;;;35.10;18.15;;;8.60;99.90;;;;;;5105214;28;20050;-80
2023/02/15 13:02:47;;;;;;;42.30;18.05;;;8.60;99.90;;;;;;5089616;28;20493;-79
2023/02/15 13:05:44;;;;;;;37.78;17.33;;;8.70;99.90;;;;;;5073360;28;20055;-79
2023/02/15 13:08:18;;;;;;;;;;;8.70;99.90;;;;;;5090552;28;20488;-79
2023/02/15 13:11:04;;;;;;;33.72;18.58;;;8.70;99.90;;;;;;5077430;28;19920;-79
2023/02/15 13:13:38;;;;;;;36.53;18.25;;;8.80;99.90;;;;;;5109839;28;20051;-77
2023/02/15 13:16:12;;;;;;;37.83;19.02;;;8.90;99.90;;;;;;5079009;28;20040;-80
2023/02/15 13:18:50;;;;;;;36.33;17.60;;;9.00;99.90;;;;;;5089348;28;20041;-79
2023/02/15 13:21:23;;;;;;;37.95;18.70;;;9.10;99.90;;;;;;5090404;28;20040;-79
2023/02/15 13:24:01;;;;;;;40.90;19.55;;;9.20;99.90;;;;;;5090121;28;20135;-79
2023/02/15 13:26:32;;;;;;;36.33;17.52;;;9.20;99.90;;;;;;5073280;28;20044;-80
2023/02/15 13:29:12;;;;;;;37.92;18.90;;;9.30;99.90;;;;;;5073207;28;20053;-79
2023/02/15 13:31:40;;;;;;;39.63;19.50;;;9.30;99.90;;;;;;5076487;28;20115;-80
2023/02/15 13:34:16;;;;;;;40.65;18.75;;;9.30;99.90;;;;;;5076824;28;20040;-79